createdAt,value
2022-12-04T00:00:27.311Z,2.25
2022-12-04T00:03:30.614Z,2.26
2022-12-04T00:06:36.607Z,2.26
2022-12-04T00:09:40.094Z,2.23
2022-12-04T00:12:42.893Z,2.19
2022-12-04T00:15:45.706Z,2.18
2022-12-04T00:18:48.969Z,2.13
2022-12-04T00:21:52.673Z,2.13
2022-12-04T00:24:55.179Z,2.14
2022-12-04T00:27:58.436Z,2.13
2022-12-04T00:31:04.600Z,2.16
2022-12-04T00:34:08.521Z,2.13
2022-12-04T00:37:11.940Z,2.10
2022-12-04T00:40:15.037Z,2.12
2022-12-04T00:43:17.871Z,2.12
2022-12-04T00:46:22.346Z,2.11
2022-12-04T00:49:24.926Z,2.09
2022-12-04T00:52:28.436Z,2.11
2022-12-04T00:55:31.724Z,2.11
2022-12-04T00:58:36.106Z,2.15
2022-12-04T01:01:40.727Z,2.16
2022-12-04T01:04:44.522Z,2.20
2022-12-04T01:07:47.212Z,2.22
2022-12-04T01:10:51.047Z,2.25
2022-12-04T01:13:54.015Z,2.25
2022-12-04T01:16:57.632Z,2.25
2022-12-04T01:20:01.792Z,2.28
2022-12-04T01:23:05.111Z,2.27
2022-12-04T01:26:07.993Z,2.28
2022-12-04T01:29:15.562Z,2.30
2022-12-04T01:32:18.268Z,2.29
2022-12-04T01:35:21.496Z,2.27
2022-12-04T01:38:25.303Z,2.21
2022-12-04T01:41:32.016Z,2.17
2022-12-04T01:44:34.835Z,2.17
2022-12-04T01:47:37.794Z,2.19
2022-12-04T01:50:42.355Z,2.20
2022-12-04T01:53:56.173Z,2.19
2022-12-04T01:57:21.395Z,2.17
2022-12-04T02:00:24.933Z,2.15
2022-12-04T02:03:30.249Z,2.12
2022-12-04T02:06:33.591Z,2.09
2022-12-04T02:09:39.476Z,2.06
2022-12-04T02:12:51.345Z,2.10
2022-12-04T02:15:58.973Z,2.10
2022-12-04T02:19:35.996Z,2.09
2022-12-04T02:22:53.963Z,2.06
2022-12-04T02:26:02.447Z,2.05
2022-12-04T02:29:17.559Z,2.04
2022-12-04T02:32:31.133Z,2.01
2022-12-04T02:35:45.946Z,2.01
2022-12-04T02:39:05.696Z,1.96
2022-12-04T02:42:12.970Z,1.91
2022-12-04T02:45:22.291Z,1.87
2022-12-04T02:48:28.495Z,1.85
2022-12-04T02:51:36.578Z,1.80
2022-12-04T02:54:45.966Z,1.77
2022-12-04T02:57:53.836Z,1.74
2022-12-04T03:00:59.704Z,1.74
2022-12-04T03:04:27.364Z,1.73
2022-12-04T03:07:58.771Z,1.72
2022-12-04T03:11:02.222Z,1.69
2022-12-04T03:14:20.993Z,1.64
2022-12-04T03:17:31.404Z,1.59
2022-12-04T03:20:39.180Z,1.58
2022-12-04T03:23:48.176Z,1.57
2022-12-04T03:27:03.823Z,1.55
2022-12-04T03:30:12.548Z,1.53
2022-12-04T03:33:19.714Z,1.47
2022-12-04T03:36:28.341Z,1.47
2022-12-04T03:39:38.473Z,1.45
2022-12-04T03:43:16.510Z,1.50
2022-12-04T03:46:41.165Z,1.53
2022-12-04T03:50:08.055Z,1.63
2022-12-04T03:53:49.656Z,1.61
2022-12-04T03:56:57.241Z,1.63
2022-12-04T04:00:13.062Z,1.62
2022-12-04T04:03:21.344Z,1.65
2022-12-04T04:06:40.389Z,1.63
2022-12-04T04:09:47.714Z,1.58
2022-12-04T04:13:21.175Z,1.55
2022-12-04T04:16:47.189Z,1.55
2022-12-04T04:20:15.408Z,1.54
2022-12-04T04:23:38.688Z,1.55
2022-12-04T04:26:50.395Z,1.51
2022-12-04T04:29:54.075Z,1.52
2022-12-04T04:33:16.822Z,1.48
2022-12-04T04:36:33.165Z,1.46
2022-12-04T04:39:38.601Z,1.43
2022-12-04T04:42:54.550Z,1.47
2022-12-04T04:46:04.652Z,1.48
2022-12-04T04:49:12.345Z,1.50
2022-12-04T04:52:18.589Z,1.52
2022-12-04T04:55:22.609Z,1.52
2022-12-04T04:58:25.777Z,1.51
2022-12-04T05:01:29.042Z,1.50
2022-12-04T05:04:31.819Z,1.47
2022-12-04T05:07:35.492Z,1.47
2022-12-04T05:10:38.646Z,1.47
2022-12-04T05:13:44.051Z,1.50
2022-12-04T05:16:47.761Z,1.53
2022-12-04T05:19:54.233Z,1.54
2022-12-04T05:22:57.388Z,1.51
2022-12-04T05:26:02.177Z,1.44
2022-12-04T05:29:04.848Z,1.43
2022-12-04T05:32:08.331Z,1.46
2022-12-04T05:35:11.906Z,1.50
2022-12-04T05:38:14.927Z,1.47
2022-12-04T05:41:18.263Z,1.45
2022-12-04T05:44:21.518Z,1.42
2022-12-04T05:47:25.543Z,1.42
2022-12-04T05:50:32.505Z,1.39
2022-12-04T05:53:45.167Z,1.37
2022-12-04T05:56:48.568Z,1.35
2022-12-04T05:59:51.579Z,1.31
2022-12-04T06:02:54.582Z,1.32
2022-12-04T06:05:58.376Z,1.26
2022-12-04T06:09:01.713Z,1.16
2022-12-04T06:12:07.514Z,1.09
2022-12-04T06:15:11.469Z,0.99
2022-12-04T06:18:14.162Z,0.98
2022-12-04T06:21:19.369Z,0.96
2022-12-04T06:24:28.305Z,0.94
2022-12-04T06:27:35.812Z,0.92
2022-12-04T06:30:42.457Z,0.91
2022-12-04T06:33:45.865Z,0.94
2022-12-04T06:36:49.372Z,0.97
2022-12-04T06:39:52.386Z,1.01
2022-12-04T06:42:56.305Z,0.98
2022-12-04T06:46:23.414Z,0.99
2022-12-04T06:49:34.409Z,0.98
2022-12-04T06:52:40.896Z,1.01
2022-12-04T06:55:55.119Z,1.02
2022-12-04T06:59:04.216Z,1.08
2022-12-04T07:02:09.291Z,1.11
2022-12-04T07:05:19.210Z,1.18
2022-12-04T07:08:22.864Z,1.19
2022-12-04T07:11:31.973Z,1.23
2022-12-04T07:14:46.159Z,1.34
2022-12-04T07:18:01.634Z,1.38
2022-12-04T07:21:07.441Z,1.45
2022-12-04T07:24:17.642Z,1.50
2022-12-04T07:27:24.396Z,1.61
2022-12-04T07:30:41.522Z,1.67
2022-12-04T07:33:51.233Z,1.80
2022-12-04T07:36:57.249Z,1.82
2022-12-04T07:40:04.244Z,1.87
2022-12-04T07:43:08.244Z,2.00
2022-12-04T07:46:16.476Z,2.06
2022-12-04T07:49:23.173Z,2.47
2022-12-04T07:52:29.811Z,2.81
2022-12-04T07:55:38.524Z,2.85
2022-12-04T07:58:44.409Z,2.79
2022-12-04T08:01:47.326Z,2.74
2022-12-04T08:04:51.685Z,2.79
2022-12-04T08:07:55.848Z,2.89
2022-12-04T08:11:01.495Z,3.02
2022-12-04T08:14:09.106Z,3.21
2022-12-04T08:17:15.367Z,3.23
2022-12-04T08:20:26.732Z,3.22
2022-12-04T08:23:36.229Z,3.29
2022-12-04T08:26:46.144Z,3.43
2022-12-04T08:29:56.832Z,3.54
2022-12-04T08:33:13.732Z,3.65
2022-12-04T08:36:26.447Z,3.59
2022-12-04T08:39:36.334Z,3.57
2022-12-04T08:42:49.655Z,3.59
2022-12-04T08:46:04.721Z,3.69
2022-12-04T08:49:22.402Z,3.58
2022-12-04T08:52:28.606Z,3.79
2022-12-04T08:55:35.088Z,3.77
2022-12-04T08:58:42.792Z,3.74
2022-12-04T09:01:51.453Z,3.79
2022-12-04T09:05:04.259Z,3.81
2022-12-04T09:08:11.313Z,3.92
2022-12-04T09:11:23.348Z,4.13
2022-12-04T09:14:36.388Z,4.26
2022-12-04T09:17:47.792Z,4.26
2022-12-04T09:21:02.315Z,4.26
2022-12-04T09:24:07.092Z,4.48
2022-12-04T09:27:18.141Z,4.54
2022-12-04T09:30:36.284Z,4.69
2022-12-04T09:33:42.840Z,4.94
2022-12-04T09:36:48.533Z,4.70
2022-12-04T09:39:56.456Z,4.91
2022-12-04T09:43:07.292Z,4.92
2022-12-04T09:46:19.259Z,5.13
2022-12-04T09:49:39.569Z,5.01
2022-12-04T09:53:04.619Z,5.00
2022-12-04T09:56:20.761Z,5.08
2022-12-04T09:59:32.342Z,5.10
2022-12-04T10:02:43.514Z,5.33
2022-12-04T10:06:19.376Z,5.36
2022-12-04T10:09:49.229Z,5.62
2022-12-04T10:13:49.238Z,5.70
2022-12-04T10:17:12.846Z,5.90
2022-12-04T10:20:49.139Z,5.92
2022-12-04T10:24:23.601Z,5.90
2022-12-04T10:27:51.281Z,6.00
2022-12-04T10:31:17.270Z,6.02
2022-12-04T10:34:28.703Z,6.03
2022-12-04T10:37:46.442Z,5.94
2022-12-04T10:41:14.574Z,5.93
2022-12-04T10:44:27.706Z,6.00
2022-12-04T10:47:44.573Z,6.11
2022-12-04T10:51:00.389Z,6.06
2022-12-04T10:54:32.877Z,5.99
2022-12-04T10:57:42.195Z,6.10
2022-12-04T11:00:58.298Z,6.09
2022-12-04T11:04:19.570Z,6.11
2022-12-04T11:07:29.296Z,6.32
2022-12-04T11:10:40.738Z,6.42
2022-12-04T11:13:48.598Z,6.47
2022-12-04T11:17:05.651Z,6.49
2022-12-04T11:20:18.341Z,6.47
2022-12-04T11:23:22.036Z,6.65
2022-12-04T11:26:39.181Z,6.67
2022-12-04T11:29:48.243Z,6.63
2022-12-04T11:32:56.324Z,6.63
2022-12-04T11:36:06.399Z,6.74
2022-12-04T11:39:13.478Z,6.63
2022-12-04T11:42:23.339Z,6.65
2022-12-04T11:45:29.562Z,6.67
2022-12-04T11:48:45.201Z,6.74
2022-12-04T11:52:18.821Z,6.78
2022-12-04T11:55:38.210Z,6.78
2022-12-04T11:59:04.380Z,6.80
2022-12-04T12:02:39.948Z,6.88
2022-12-04T12:05:49.466Z,6.98
2022-12-04T12:09:20.292Z,7.01
2022-12-04T12:12:57.341Z,6.98
2022-12-04T12:16:17.242Z,7.04
2022-12-04T12:19:55.458Z,7.04
2022-12-04T12:23:10.213Z,7.14
2022-12-04T12:26:17.383Z,7.21
2022-12-04T12:29:49.111Z,7.22
2022-12-04T12:33:12.179Z,7.22
2022-12-04T12:36:21.757Z,7.26
2022-12-04T12:39:39.283Z,7.34
2022-12-04T12:42:58.690Z,7.37
2022-12-04T12:46:42.129Z,7.42
2022-12-04T12:49:59.312Z,7.49
2022-12-04T12:53:26.202Z,7.50
2022-12-04T12:56:49.864Z,7.45
2022-12-04T13:00:02.410Z,7.45
2022-12-04T13:03:28.242Z,7.38
2022-12-04T13:06:40.503Z,7.32
2022-12-04T13:10:17.244Z,7.26
2022-12-04T13:13:50.102Z,7.23
2022-12-04T13:17:01.194Z,7.18
2022-12-04T13:20:32.101Z,7.11
2022-12-04T13:24:31.287Z,7.06
2022-12-04T13:28:00.708Z,7.02
2022-12-04T13:31:29.472Z,6.97
2022-12-04T13:35:06.201Z,6.94
2022-12-04T13:38:35.134Z,6.89
2022-12-04T13:41:46.518Z,6.88
2022-12-04T13:45:08.969Z,6.85
2022-12-04T13:48:16.142Z,6.83
2022-12-04T13:51:44.223Z,6.79
2022-12-04T13:55:00.086Z,6.77
2022-12-04T13:58:13.208Z,6.76
2022-12-04T14:01:30.990Z,6.75
2022-12-04T14:04:47.230Z,6.75
2022-12-04T14:08:08.024Z,6.71
2022-12-04T14:11:16.910Z,6.68
2022-12-04T14:14:32.278Z,6.67
2022-12-04T14:17:40.497Z,6.62
2022-12-04T14:20:45.379Z,6.59
2022-12-04T14:23:52.338Z,6.59
2022-12-04T14:27:15.597Z,6.55
2022-12-04T14:30:22.157Z,6.52
2022-12-04T14:33:32.812Z,6.53
2022-12-04T14:41:00.316Z,6.49
2022-12-04T14:44:41.354Z,6.49
2022-12-04T14:48:02.701Z,6.47
2022-12-04T14:51:09.223Z,6.43
2022-12-04T14:54:29.276Z,6.42
2022-12-04T14:57:54.881Z,6.42
2022-12-04T15:01:36.417Z,6.41
2022-12-04T15:04:49.270Z,6.39
2022-12-04T15:08:06.385Z,6.37
2022-12-04T15:11:44.324Z,6.36
2022-12-04T15:14:52.536Z,6.36
2022-12-04T15:18:09.732Z,6.30
2022-12-04T15:21:16.201Z,6.26
2022-12-04T15:24:26.600Z,6.22
2022-12-04T15:27:33.080Z,6.19
2022-12-04T15:30:42.569Z,6.17
2022-12-04T15:33:50.176Z,6.14
2022-12-04T15:37:07.304Z,6.14
2022-12-04T15:40:21.431Z,6.15
2022-12-04T15:43:43.966Z,6.10
2022-12-04T15:46:58.391Z,6.08
2022-12-04T15:50:19.311Z,6.06
2022-12-04T15:53:32.250Z,6.00
2022-12-04T15:56:37.185Z,5.98
2022-12-04T15:59:59.130Z,5.96
2022-12-04T16:03:36.332Z,5.91
2022-12-04T16:06:48.726Z,5.89
2022-12-04T16:10:03.262Z,5.87
2022-12-04T16:13:30.239Z,5.87
2022-12-04T16:16:50.109Z,5.89
2022-12-04T16:20:02.846Z,5.87
2022-12-04T16:23:08.136Z,5.86
2022-12-04T16:26:17.266Z,5.87
2022-12-04T16:29:23.186Z,5.87
2022-12-04T16:32:34.427Z,5.84
2022-12-04T16:35:50.115Z,5.81
2022-12-04T16:38:56.160Z,5.80
2022-12-04T16:42:25.131Z,5.80
2022-12-04T16:45:33.528Z,5.78
2022-12-04T16:48:43.444Z,5.73
2022-12-04T16:51:52.440Z,5.72
2022-12-04T16:54:58.494Z,5.69
2022-12-04T16:58:08.166Z,5.67
2022-12-04T17:01:26.732Z,5.68
2022-12-04T17:04:37.205Z,5.65
2022-12-04T17:07:43.802Z,5.59
2022-12-04T17:10:50.132Z,5.60
2022-12-04T17:13:52.913Z,5.57
2022-12-04T17:17:07.259Z,5.57
2022-12-04T17:20:28.065Z,5.55
2022-12-04T17:23:32.652Z,5.54
2022-12-04T17:26:38.375Z,5.52
2022-12-04T17:29:50.722Z,5.54
2022-12-04T17:32:57.196Z,5.52
2022-12-04T17:36:15.246Z,5.51
2022-12-04T17:39:21.181Z,5.49
2022-12-04T17:42:25.334Z,5.47
2022-12-04T17:45:33.188Z,5.49
2022-12-04T17:48:38.602Z,5.49
2022-12-04T17:51:52.074Z,5.46
2022-12-04T17:55:05.331Z,5.45
2022-12-04T17:58:13.497Z,5.41
2022-12-04T18:01:20.559Z,5.45
2022-12-04T18:04:25.255Z,5.45
2022-12-04T18:07:33.227Z,5.43
2022-12-04T18:10:42.956Z,5.43
2022-12-04T18:13:51.189Z,5.40
2022-12-04T18:17:06.243Z,5.40
2022-12-04T18:20:13.764Z,5.38
2022-12-04T18:23:31.181Z,5.40
2022-12-04T18:26:45.205Z,5.39
2022-12-04T18:29:53.623Z,5.40
2022-12-04T18:33:06.091Z,5.37
2022-12-04T18:36:28.584Z,5.37
2022-12-04T18:39:37.644Z,5.36
2022-12-04T18:42:41.933Z,5.35
2022-12-04T18:46:04.173Z,5.35
2022-12-04T18:49:13.160Z,5.36
2022-12-04T18:52:16.653Z,5.38
2022-12-04T18:55:24.376Z,5.37
2022-12-04T18:58:29.610Z,5.40
2022-12-04T19:01:35.364Z,5.43
2022-12-04T19:04:48.115Z,5.47
2022-12-04T19:07:54.224Z,5.49
2022-12-04T19:11:16.060Z,5.50
2022-12-04T19:14:37.188Z,5.51
2022-12-04T19:17:44.162Z,5.50
2022-12-04T19:20:53.162Z,5.51
2022-12-04T19:24:00.349Z,5.50
2022-12-04T19:27:13.471Z,5.51
2022-12-04T19:30:19.166Z,5.55
2022-12-04T19:33:34.399Z,5.54
2022-12-04T19:36:48.149Z,5.52
2022-12-04T19:40:02.390Z,5.53
2022-12-04T19:43:06.725Z,5.51
2022-12-04T19:46:15.885Z,5.48
2022-12-04T19:49:31.255Z,5.50
2022-12-04T19:52:40.462Z,5.47
2022-12-04T19:55:51.315Z,5.43
2022-12-04T19:58:57.439Z,5.44
2022-12-04T20:02:00.646Z,5.40
2022-12-04T20:05:12.162Z,5.39
2022-12-04T20:08:28.182Z,5.35
2022-12-04T20:11:36.200Z,5.34
2022-12-04T20:14:45.602Z,5.31
2022-12-04T20:17:48.701Z,5.31
2022-12-04T20:20:57.126Z,5.29
2022-12-04T20:24:11.482Z,5.28
2022-12-04T20:27:17.301Z,5.28
2022-12-04T20:30:26.232Z,5.27
2022-12-04T20:33:37.185Z,5.27
2022-12-04T20:36:47.166Z,5.26
2022-12-04T20:39:53.639Z,5.24
2022-12-04T20:43:07.055Z,5.23
2022-12-04T20:46:29.216Z,5.22
2022-12-04T20:49:51.110Z,5.21
2022-12-04T20:53:11.222Z,5.19
2022-12-04T20:56:17.229Z,5.18
2022-12-04T20:59:26.080Z,5.17
2022-12-04T21:02:37.082Z,5.14
2022-12-04T21:05:42.151Z,5.13
2022-12-04T21:08:56.130Z,5.16
2022-12-04T21:12:24.366Z,5.15
2022-12-04T21:15:47.417Z,5.09
2022-12-04T21:18:52.129Z,5.09
2022-12-04T21:21:58.430Z,5.06
2022-12-04T21:25:15.113Z,5.04
2022-12-04T21:28:18.700Z,5.02
2022-12-04T21:31:22.271Z,5.01
2022-12-04T21:34:26.472Z,5.00
2022-12-04T21:37:31.156Z,5.00
2022-12-04T21:40:42.096Z,4.97
2022-12-04T21:43:47.177Z,4.95
2022-12-04T21:46:51.237Z,5.01
2022-12-04T21:49:56.676Z,5.03
2022-12-04T21:53:06.069Z,5.00
2022-12-04T21:56:12.421Z,4.96
2022-12-04T21:59:18.095Z,4.96
2022-12-04T22:02:25.346Z,4.95
2022-12-04T22:05:32.319Z,4.91
2022-12-04T22:08:38.343Z,4.88
2022-12-04T22:11:48.490Z,4.87
2022-12-04T22:14:53.259Z,4.84
2022-12-04T22:17:56.786Z,4.82
2022-12-04T22:21:04.333Z,4.81
2022-12-04T22:24:10.669Z,4.77
2022-12-04T22:27:16.153Z,4.77
2022-12-04T22:30:19.369Z,4.76
2022-12-04T22:33:23.293Z,4.77
2022-12-04T22:36:32.043Z,4.72
2022-12-04T22:39:35.105Z,4.74
2022-12-04T22:42:39.386Z,4.71
2022-12-04T22:45:42.652Z,4.70
2022-12-04T22:48:46.325Z,4.68
2022-12-04T22:51:49.312Z,4.68
2022-12-04T22:54:54.130Z,4.64
2022-12-04T22:57:57.128Z,4.63
2022-12-04T23:01:00.827Z,4.58
2022-12-04T23:04:03.831Z,4.58
2022-12-04T23:07:09.077Z,4.55
2022-12-04T23:10:13.110Z,4.55
2022-12-04T23:13:16.024Z,4.52
2022-12-04T23:16:20.789Z,4.53
2022-12-04T23:19:25.457Z,4.52
2022-12-04T23:22:28.548Z,4.52
2022-12-04T23:25:31.346Z,4.52
2022-12-04T23:28:34.170Z,4.50
2022-12-04T23:31:39.192Z,4.50
2022-12-04T23:34:41.839Z,4.52
2022-12-04T23:37:46.171Z,4.53
2022-12-04T23:40:48.850Z,4.53
2022-12-04T23:43:53.448Z,4.52
2022-12-04T23:46:56.389Z,4.53
2022-12-04T23:49:59.818Z,4.51
2022-12-04T23:53:03.207Z,4.52
2022-12-04T23:56:32.874Z,4.52
2022-12-04T23:59:36.279Z,4.53
